createdAt,value
2022-11-05T00:00:05.122Z,92.79
2022-11-05T00:01:06.852Z,91.35
2022-11-05T00:02:05.740Z,91.61
2022-11-05T00:03:05.054Z,89.97
2022-11-05T00:04:06.868Z,88.84
2022-11-05T00:05:05.873Z,87.82
2022-11-05T00:06:05.813Z,87.40
2022-11-05T00:07:05.833Z,87.82
2022-11-05T00:08:04.994Z,89.04
2022-11-05T00:09:07.165Z,90.80
2022-11-05T00:10:06.013Z,90.89
2022-11-05T00:11:05.084Z,90.03
2022-11-05T00:12:06.274Z,87.98
2022-11-05T00:13:05.773Z,86.95
2022-11-05T00:14:04.912Z,88.59
2022-11-05T00:15:06.243Z,87.67
2022-11-05T00:16:05.023Z,87.37
2022-11-05T00:17:05.633Z,87.67
2022-11-05T00:18:04.879Z,87.67
2022-11-05T00:19:05.619Z,87.16
2022-11-05T00:20:04.862Z,86.54
2022-11-05T00:21:06.285Z,88.02
2022-11-05T00:22:05.853Z,86.99
2022-11-05T00:23:04.845Z,88.27
2022-11-05T00:24:05.664Z,89.13
2022-11-05T00:25:05.573Z,88.72
2022-11-05T00:26:04.793Z,88.20
2022-11-05T00:27:05.642Z,89.13
2022-11-05T00:28:04.783Z,89.75
2022-11-05T00:29:04.770Z,88.20
2022-11-05T00:30:04.759Z,87.84
2022-11-05T00:31:06.300Z,89.85
2022-11-05T00:32:05.049Z,87.42
2022-11-05T00:33:04.790Z,88.76
2022-11-05T00:34:06.271Z,88.86
2022-11-05T00:35:04.859Z,88.82
2022-11-05T00:36:04.699Z,88.41
2022-11-05T00:37:05.508Z,89.19
2022-11-05T00:38:05.360Z,89.19
2022-11-05T00:39:04.729Z,89.70
2022-11-05T00:40:06.370Z,87.13
2022-11-05T00:41:05.692Z,88.57
2022-11-05T00:42:04.650Z,87.45
2022-11-05T00:43:05.469Z,88.68
2022-11-05T00:44:04.999Z,88.27
2022-11-05T00:45:06.454Z,86.87
2022-11-05T00:46:05.380Z,89.03
2022-11-05T00:47:04.590Z,92.63
2022-11-05T00:48:06.270Z,90.83
2022-11-05T00:49:06.010Z,90.38
2022-11-05T00:50:04.570Z,87.40
2022-11-05T00:51:05.369Z,89.36
2022-11-05T00:52:04.549Z,86.68
2022-11-05T00:53:06.498Z,86.68
2022-11-05T00:54:05.381Z,87.51
2022-11-05T00:55:04.499Z,85.25
2022-11-05T00:56:06.621Z,86.00
2022-11-05T00:57:05.721Z,88.06
2022-11-05T00:58:06.329Z,88.68
2022-11-05T00:59:05.232Z,87.79
2022-11-05T01:00:04.461Z,88.62
2022-11-05T01:01:05.770Z,88.41
2022-11-05T01:02:04.643Z,89.03
2022-11-05T01:03:05.331Z,89.40
2022-11-05T01:04:04.409Z,87.96
2022-11-05T01:05:05.750Z,89.50
2022-11-05T01:06:04.440Z,87.55
2022-11-05T01:07:04.380Z,87.28
2022-11-05T01:08:05.069Z,87.49
2022-11-05T01:09:04.410Z,91.49
2022-11-05T01:10:05.109Z,89.64
2022-11-05T01:11:05.130Z,92.21
2022-11-05T01:12:04.329Z,89.91
2022-11-05T01:13:08.824Z,91.45
2022-11-05T01:14:05.308Z,89.25
2022-11-05T01:15:04.301Z,89.15
2022-11-05T01:16:05.759Z,89.04
2022-11-05T01:17:04.569Z,88.70
2022-11-05T01:18:04.280Z,88.90
2022-11-05T01:19:05.742Z,86.03
2022-11-05T01:20:04.495Z,88.12
2022-11-05T01:21:04.230Z,86.79
2022-11-05T01:22:05.800Z,89.25
2022-11-05T01:23:10.296Z,88.12
2022-11-05T01:24:05.759Z,86.00
2022-11-05T01:25:04.260Z,88.27
2022-11-05T01:26:05.010Z,87.79
2022-11-05T01:27:04.990Z,89.44
2022-11-05T01:28:04.158Z,87.90
2022-11-05T01:29:05.010Z,88.17
2022-11-05T01:30:04.990Z,86.56
2022-11-05T01:31:04.960Z,87.79
2022-11-05T01:32:04.122Z,89.34
2022-11-05T01:33:05.720Z,89.54
2022-11-05T01:34:04.390Z,87.90
2022-11-05T01:35:04.100Z,88.72
2022-11-05T01:36:05.728Z,87.73
2022-11-05T01:37:05.070Z,88.45
2022-11-05T01:38:04.059Z,89.38
2022-11-05T01:39:05.692Z,89.13
2022-11-05T01:40:04.410Z,89.85
2022-11-05T01:41:04.020Z,89.95
2022-11-05T01:42:04.750Z,88.82
2022-11-05T01:43:04.053Z,89.54
2022-11-05T01:44:04.750Z,89.13
2022-11-05T01:45:03.979Z,89.60
2022-11-05T01:46:05.290Z,87.13
2022-11-05T01:47:04.608Z,88.98
2022-11-05T01:48:04.019Z,88.89
2022-11-05T01:49:05.269Z,87.82
2022-11-05T01:50:04.171Z,88.53
2022-11-05T01:51:03.934Z,88.74
2022-11-05T01:52:04.829Z,89.21
2022-11-05T01:53:03.910Z,87.57
2022-11-05T01:54:04.769Z,87.37
2022-11-05T01:55:03.880Z,84.90
2022-11-05T01:56:05.261Z,83.75
2022-11-05T01:57:04.000Z,86.66
2022-11-05T01:58:03.849Z,86.87
2022-11-05T01:59:05.320Z,87.84
2022-11-05T02:00:04.180Z,88.39
2022-11-05T02:01:04.612Z,89.94
2022-11-05T02:02:04.818Z,90.34
2022-11-05T02:03:03.824Z,90.86
2022-11-05T02:04:05.274Z,91.06
2022-11-05T02:05:03.989Z,89.01
2022-11-05T02:06:03.769Z,89.77
2022-11-05T02:07:04.720Z,89.46
2022-11-05T02:08:03.760Z,90.80
2022-11-05T02:09:05.360Z,90.18
2022-11-05T02:10:04.130Z,89.36
2022-11-05T02:11:04.540Z,89.09
2022-11-05T02:12:03.712Z,91.19
2022-11-05T02:13:05.239Z,92.53
2022-11-05T02:14:04.170Z,93.52
2022-11-05T02:15:03.741Z,91.05
2022-11-05T02:16:05.121Z,92.38
2022-11-05T02:17:04.589Z,91.66
2022-11-05T02:18:04.429Z,93.11
2022-11-05T02:19:03.631Z,91.36
2022-11-05T02:20:04.430Z,90.57
2022-11-05T02:21:03.999Z,93.66
2022-11-05T02:22:04.470Z,93.15
2022-11-05T02:23:04.270Z,94.85
2022-11-05T02:24:03.620Z,92.44
2022-11-05T02:25:05.411Z,92.44
2022-11-05T02:26:04.490Z,92.96
2022-11-05T02:27:03.552Z,94.05
2022-11-05T02:28:05.120Z,93.43
2022-11-05T02:29:03.979Z,93.90
2022-11-05T02:30:03.520Z,89.95
2022-11-05T02:31:05.389Z,89.03
2022-11-05T02:32:04.608Z,87.42
2022-11-05T02:33:03.512Z,90.55
2022-11-05T02:34:04.960Z,90.75
2022-11-05T02:35:03.599Z,90.96
2022-11-05T02:36:04.120Z,92.61
2022-11-05T02:37:03.459Z,90.14
2022-11-05T02:38:05.120Z,88.80
2022-11-05T02:39:04.331Z,91.27
2022-11-05T02:40:03.425Z,89.22
2022-11-05T02:41:04.589Z,90.75
2022-11-05T02:42:05.215Z,90.45
2022-11-05T02:43:03.390Z,89.83
2022-11-05T02:44:04.811Z,90.55
2022-11-05T02:45:03.630Z,89.77
2022-11-05T02:46:04.090Z,91.17
2022-11-05T02:47:04.219Z,91.38
2022-11-05T02:48:03.350Z,91.38
2022-11-05T02:49:04.651Z,89.05
2022-11-05T02:50:03.510Z,90.90
2022-11-05T02:51:03.309Z,90.49
2022-11-05T02:52:04.910Z,92.24
2022-11-05T02:53:03.687Z,90.59
2022-11-05T02:54:03.269Z,91.11
2022-11-05T02:55:04.829Z,91.00
2022-11-05T02:56:04.139Z,91.42
2022-11-05T02:57:03.243Z,91.78
2022-11-05T02:58:04.049Z,91.68
2022-11-05T02:59:03.219Z,91.06
2022-11-05T03:00:04.731Z,91.23
2022-11-05T03:01:03.660Z,90.09
2022-11-05T03:02:03.387Z,91.13
2022-11-05T03:03:04.787Z,90.09
2022-11-05T03:04:03.449Z,90.57
2022-11-05T03:05:03.160Z,89.95
2022-11-05T03:06:03.878Z,89.23
2022-11-05T03:07:03.954Z,89.85
2022-11-05T03:08:03.130Z,89.13
2022-11-05T03:09:04.809Z,89.34
2022-11-05T03:10:03.411Z,88.62
2022-11-05T03:11:03.999Z,89.07
2022-11-05T03:12:03.109Z,89.44
2022-11-05T03:13:04.730Z,89.58
2022-11-05T03:14:03.843Z,89.58
2022-11-05T03:15:03.070Z,89.89
2022-11-05T03:16:05.029Z,90.34
2022-11-05T03:17:04.010Z,91.27
2022-11-05T03:18:03.106Z,90.24
2022-11-05T03:19:05.360Z,92.36
2022-11-05T03:20:04.281Z,90.81
2022-11-05T03:21:03.011Z,89.38
2022-11-05T03:22:04.191Z,89.64
2022-11-05T03:23:02.981Z,90.57
2022-11-05T03:24:03.031Z,89.54
2022-11-05T03:25:04.320Z,89.85
2022-11-05T03:26:03.109Z,87.90
2022-11-05T03:27:03.675Z,88.41
2022-11-05T03:28:02.929Z,89.75
2022-11-05T03:29:04.320Z,91.80
2022-11-05T03:30:03.188Z,90.78
2022-11-05T03:31:02.910Z,89.60
2022-11-05T03:32:04.290Z,88.68
2022-11-05T03:33:03.039Z,91.10
2022-11-05T03:34:03.819Z,90.38
2022-11-05T03:35:02.917Z,87.61
2022-11-05T03:36:04.191Z,87.51
2022-11-05T03:37:02.971Z,89.83
2022-11-05T03:38:02.875Z,86.48
2022-11-05T03:39:03.620Z,86.89
2022-11-05T03:40:04.568Z,89.46
2022-11-05T03:41:02.815Z,88.95
2022-11-05T03:42:04.242Z,87.92
2022-11-05T03:43:02.974Z,88.02
2022-11-05T03:44:02.761Z,85.49
2022-11-05T03:45:04.381Z,87.13
2022-11-05T03:46:03.279Z,88.27
2022-11-05T03:47:02.730Z,87.65
2022-11-05T03:48:04.681Z,89.09
2022-11-05T03:49:03.643Z,89.50
2022-11-05T03:50:02.714Z,89.76
2022-11-05T03:51:04.270Z,88.64
2022-11-05T03:52:03.102Z,88.95
2022-11-05T03:53:02.669Z,88.33
2022-11-05T03:54:03.503Z,88.23
2022-11-05T03:55:03.006Z,88.02
2022-11-05T03:56:04.218Z,89.87
2022-11-05T03:57:03.091Z,89.56
2022-11-05T03:58:02.619Z,89.62
2022-11-05T03:59:02.609Z,89.72
2022-11-05T04:00:04.031Z,87.53
2022-11-05T04:01:02.589Z,87.43
2022-11-05T04:02:03.597Z,87.37
2022-11-05T04:03:02.685Z,86.65
2022-11-05T04:04:04.178Z,88.08
2022-11-05T04:05:03.872Z,87.53
2022-11-05T04:06:03.170Z,85.38
2022-11-05T04:07:04.439Z,88.56
2022-11-05T04:08:03.909Z,87.22
2022-11-05T04:09:02.629Z,86.30
2022-11-05T04:10:03.388Z,87.12
2022-11-05T04:11:02.928Z,84.66
2022-11-05T04:12:04.381Z,84.39
2022-11-05T04:13:03.449Z,85.82
2022-11-05T04:14:02.450Z,87.05
2022-11-05T04:15:03.810Z,86.68
2022-11-05T04:16:02.570Z,88.59
2022-11-05T04:17:02.408Z,86.99
2022-11-05T04:18:03.790Z,87.30
2022-11-05T04:19:02.637Z,88.12
2022-11-05T04:20:02.396Z,88.39
2022-11-05T04:21:03.699Z,86.33
2022-11-05T04:22:02.849Z,89.62
2022-11-05T04:23:02.359Z,89.31
2022-11-05T04:24:04.341Z,85.72
2022-11-05T04:25:03.289Z,88.80
2022-11-05T04:26:02.320Z,86.85
2022-11-05T04:27:03.681Z,88.14
2022-11-05T04:28:02.509Z,84.96
2022-11-05T04:29:07.773Z,87.73
2022-11-05T04:30:02.338Z,85.47
2022-11-05T04:31:02.270Z,86.24
2022-11-05T04:32:03.780Z,88.39
2022-11-05T04:33:02.671Z,86.03
2022-11-05T04:34:02.250Z,88.59
2022-11-05T04:35:03.768Z,87.57
2022-11-05T04:36:02.490Z,86.33
2022-11-05T04:37:02.218Z,86.33
2022-11-05T04:38:03.830Z,86.65
2022-11-05T04:39:02.641Z,86.75
2022-11-05T04:40:02.218Z,86.33
2022-11-05T04:41:03.649Z,87.88
2022-11-05T04:42:02.891Z,87.67
2022-11-05T04:43:02.170Z,87.37
2022-11-05T04:44:04.011Z,86.44
2022-11-05T04:45:03.029Z,86.44
2022-11-05T04:46:02.153Z,86.89
2022-11-05T04:47:03.900Z,88.43
2022-11-05T04:48:02.879Z,87.75
2022-11-05T04:49:02.089Z,91.51
2022-11-05T04:50:04.101Z,88.64
2022-11-05T04:51:03.045Z,89.09
2022-11-05T04:52:02.060Z,90.08
2022-11-05T04:53:03.740Z,90.48
2022-11-05T04:54:03.020Z,86.89
2022-11-05T04:55:02.739Z,89.15
2022-11-05T04:56:02.008Z,90.03
2022-11-05T04:57:02.750Z,89.31
2022-11-05T04:58:02.940Z,88.24
2022-11-05T04:59:01.989Z,88.66
2022-11-05T05:00:03.320Z,88.92
2022-11-05T05:01:02.751Z,85.95
2022-11-05T05:02:02.073Z,87.79
2022-11-05T05:03:03.419Z,85.95
2022-11-05T05:04:02.140Z,87.14
2022-11-05T05:05:01.932Z,84.78
2022-11-05T05:06:04.185Z,85.74
2022-11-05T05:07:03.099Z,85.85
2022-11-05T05:08:01.950Z,85.44
2022-11-05T05:09:03.308Z,84.45
2022-11-05T05:10:02.188Z,84.45
2022-11-05T05:11:01.859Z,86.30
2022-11-05T05:12:03.179Z,86.03
2022-11-05T05:13:02.079Z,86.33
2022-11-05T05:14:01.858Z,87.61
2022-11-05T05:15:03.309Z,87.82
2022-11-05T05:16:02.179Z,87.71
2022-11-05T05:17:01.810Z,87.51
2022-11-05T05:18:03.421Z,87.61
2022-11-05T05:19:02.761Z,88.27
2022-11-05T05:20:02.500Z,88.78
2022-11-05T05:21:02.619Z,87.85
2022-11-05T05:22:01.741Z,88.78
2022-11-05T05:23:03.400Z,88.89
2022-11-05T05:24:02.510Z,89.15
2022-11-05T05:25:01.771Z,89.36
2022-11-05T05:26:03.201Z,89.11
2022-11-05T05:27:02.001Z,89.72
2022-11-05T05:28:01.693Z,88.86
2022-11-05T05:29:03.239Z,85.99
2022-11-05T05:30:02.519Z,86.71
2022-11-05T05:31:01.743Z,87.22
2022-11-05T05:32:03.360Z,85.17
2022-11-05T05:33:02.210Z,86.48
2022-11-05T05:34:01.638Z,87.61
2022-11-05T05:35:03.268Z,87.82
2022-11-05T05:36:04.675Z,89.36
2022-11-05T05:37:02.900Z,90.65
2022-11-05T05:38:01.614Z,86.27
2022-11-05T05:39:02.411Z,89.21
2022-11-05T05:40:02.383Z,88.18
2022-11-05T05:41:01.570Z,86.95
2022-11-05T05:42:03.180Z,86.89
2022-11-05T05:43:02.453Z,89.46
2022-11-05T05:44:02.379Z,90.08
2022-11-05T05:45:02.569Z,89.52
2022-11-05T05:46:03.218Z,89.62
2022-11-05T05:47:02.330Z,88.56
2022-11-05T05:48:02.159Z,88.14
2022-11-05T05:49:05.429Z,87.49
2022-11-05T05:50:02.253Z,86.66
2022-11-05T05:51:02.250Z,85.33
2022-11-05T05:52:02.158Z,85.64
2022-11-05T05:53:02.390Z,86.57
2022-11-05T05:54:02.161Z,86.15
2022-11-05T05:55:02.215Z,85.44
2022-11-05T05:56:02.229Z,86.46
2022-11-05T05:57:02.210Z,86.57
2022-11-05T05:58:02.129Z,88.00
2022-11-05T05:59:02.199Z,88.31
2022-11-05T06:00:02.147Z,85.03
2022-11-05T06:01:02.081Z,84.76
2022-11-05T06:02:02.409Z,87.94
2022-11-05T06:03:02.209Z,87.22
2022-11-05T06:04:02.139Z,85.99
2022-11-05T06:05:02.031Z,86.30
2022-11-05T06:06:02.160Z,86.40
2022-11-05T06:07:02.010Z,86.60
2022-11-05T06:08:02.288Z,87.02
2022-11-05T06:09:02.060Z,87.16
2022-11-05T06:10:02.100Z,88.56
2022-11-05T06:11:02.047Z,86.65
2022-11-05T06:12:01.890Z,88.29
2022-11-05T06:13:02.030Z,87.57
2022-11-05T06:14:01.829Z,86.95
2022-11-05T06:15:02.033Z,88.49
2022-11-05T06:16:01.911Z,88.39
2022-11-05T06:17:02.219Z,87.16
2022-11-05T06:18:01.879Z,87.10
2022-11-05T06:19:01.932Z,87.20
2022-11-05T06:20:01.812Z,89.25
2022-11-05T06:21:02.215Z,88.84
2022-11-05T06:22:02.834Z,89.56
2022-11-05T06:23:02.950Z,89.97
2022-11-05T06:24:02.939Z,89.97
2022-11-05T06:25:02.930Z,90.38
2022-11-05T06:26:02.809Z,90.28
2022-11-05T06:27:02.801Z,88.95
2022-11-05T06:28:01.930Z,88.64
2022-11-05T06:29:01.782Z,89.04
2022-11-05T06:30:02.432Z,90.18
2022-11-05T06:31:01.739Z,89.25
2022-11-05T06:32:01.892Z,90.28
2022-11-05T06:33:01.819Z,89.04
2022-11-05T06:34:01.879Z,88.06
2022-11-05T06:35:01.670Z,89.19
2022-11-05T06:36:01.962Z,89.91
2022-11-05T06:37:01.747Z,88.78
2022-11-05T06:38:01.793Z,89.87
2022-11-05T06:39:01.799Z,89.46
2022-11-05T06:40:01.805Z,88.57
2022-11-05T06:41:07.142Z,89.19
2022-11-05T06:42:18.095Z,89.97
2022-11-05T06:43:01.697Z,90.18
2022-11-05T06:44:01.519Z,89.25
2022-11-05T06:45:01.799Z,89.25
2022-11-05T06:46:01.666Z,89.21
2022-11-05T06:47:01.829Z,89.42
2022-11-05T06:48:02.337Z,88.90
2022-11-05T06:49:01.672Z,88.86
2022-11-05T06:50:02.617Z,87.32
2022-11-05T06:51:02.813Z,88.51
2022-11-05T06:52:00.848Z,87.79
2022-11-05T06:53:02.713Z,86.32
2022-11-05T06:54:01.549Z,87.04
2022-11-05T06:55:02.787Z,84.23
2022-11-05T06:56:02.488Z,84.64
2022-11-05T06:57:01.598Z,85.66
2022-11-05T06:58:02.519Z,84.33
2022-11-05T06:59:02.417Z,84.17
2022-11-05T07:00:07.290Z,85.25
2022-11-05T07:01:02.481Z,86.18
2022-11-05T07:02:01.585Z,84.12
2022-11-05T07:03:01.359Z,86.28
2022-11-05T07:04:02.570Z,86.14
2022-11-05T07:05:01.329Z,86.61
2022-11-05T07:06:01.598Z,84.87
2022-11-05T07:07:01.389Z,84.42
2022-11-05T07:08:01.518Z,84.22
2022-11-05T07:09:01.368Z,83.60
2022-11-05T07:10:01.549Z,84.48
2022-11-05T07:11:01.377Z,81.96
2022-11-05T07:12:01.519Z,82.27
2022-11-05T07:13:06.615Z,83.84
2022-11-05T07:14:02.177Z,83.27
2022-11-05T07:15:01.380Z,84.39
2022-11-05T07:16:01.789Z,85.11
2022-11-05T07:17:01.450Z,84.70
2022-11-05T07:18:01.598Z,84.74
2022-11-05T07:19:01.551Z,85.93
2022-11-05T07:20:01.719Z,84.70
2022-11-05T07:21:01.402Z,85.56
2022-11-05T07:22:01.349Z,85.36
2022-11-05T07:23:01.342Z,85.77
2022-11-05T07:24:01.588Z,86.07
2022-11-05T07:25:01.629Z,86.34
2022-11-05T07:26:01.288Z,84.74
2022-11-05T07:27:01.629Z,84.44
2022-11-05T07:28:01.189Z,85.97
2022-11-05T07:29:02.009Z,86.48
2022-11-05T07:30:00.453Z,86.04
2022-11-05T07:31:01.358Z,86.14
2022-11-05T07:32:01.428Z,83.98
2022-11-05T07:33:01.070Z,85.72
2022-11-05T07:34:01.261Z,84.60
2022-11-05T07:35:01.109Z,85.63
2022-11-05T07:36:01.180Z,85.05
2022-11-05T07:37:01.038Z,85.46
2022-11-05T07:38:00.401Z,85.56
2022-11-05T07:39:01.248Z,87.10
2022-11-05T07:40:01.159Z,86.07
2022-11-05T07:41:01.265Z,85.77
2022-11-05T07:42:01.234Z,86.22
2022-11-05T07:43:01.800Z,87.34
2022-11-05T07:44:01.648Z,85.97
2022-11-05T07:45:00.302Z,86.28
2022-11-05T07:46:00.925Z,85.87
2022-11-05T07:47:00.259Z,86.04
2022-11-05T07:48:00.919Z,85.52
2022-11-05T07:49:01.249Z,84.70
2022-11-05T07:50:00.231Z,84.80
2022-11-05T07:51:01.089Z,85.01
2022-11-05T07:52:01.318Z,85.01
2022-11-05T07:53:01.019Z,84.60
2022-11-05T07:54:01.050Z,84.09
2022-11-05T07:55:00.201Z,84.70
2022-11-05T07:56:02.131Z,84.60
2022-11-05T07:57:01.220Z,84.91
2022-11-05T07:58:01.629Z,84.50
2022-11-05T07:59:01.038Z,84.60
2022-11-05T08:00:00.183Z,85.28
2022-11-05T08:01:01.975Z,83.95
2022-11-05T08:02:01.092Z,84.05
2022-11-05T08:03:06.837Z,84.01
2022-11-05T08:04:00.972Z,84.42
2022-11-05T08:05:00.162Z,82.23
2022-11-05T08:06:02.083Z,82.34
2022-11-05T08:07:00.679Z,82.29
2022-11-05T08:08:00.880Z,81.88
2022-11-05T08:09:00.720Z,81.85
2022-11-05T08:10:00.039Z,81.03
2022-11-05T08:11:00.809Z,80.87
2022-11-05T08:12:03.094Z,81.38
2022-11-05T08:13:01.410Z,81.95
2022-11-05T08:14:00.800Z,80.58
2022-11-05T08:14:59.969Z,81.40
2022-11-05T08:16:00.740Z,80.48
2022-11-05T08:17:00.760Z,80.11
2022-11-05T08:18:00.612Z,80.73
2022-11-05T08:19:00.792Z,80.32
2022-11-05T08:20:00.620Z,80.01
2022-11-05T08:21:00.749Z,79.25
2022-11-05T08:22:00.591Z,79.77
2022-11-05T08:22:59.895Z,78.95
2022-11-05T08:24:00.620Z,79.57
2022-11-05T08:25:06.456Z,79.36
2022-11-05T08:26:00.634Z,78.81
2022-11-05T08:27:01.759Z,79.32
2022-11-05T08:28:01.608Z,77.89
2022-11-05T08:29:01.778Z,78.30
2022-11-05T08:30:01.638Z,79.05
2022-11-05T08:31:01.709Z,78.50
2022-11-05T08:32:00.639Z,79.08
2022-11-05T08:33:00.401Z,76.50
2022-11-05T08:34:02.621Z,76.63
2022-11-05T08:35:00.371Z,76.53
2022-11-05T08:36:00.548Z,77.00
2022-11-05T08:37:00.489Z,77.14
2022-11-05T08:38:00.542Z,77.51
2022-11-05T08:39:00.412Z,76.59
2022-11-05T08:40:00.729Z,77.51
2022-11-05T08:41:00.427Z,77.25
2022-11-05T08:42:00.599Z,77.34
2022-11-05T08:43:00.499Z,78.00
2022-11-05T08:44:00.440Z,78.57
2022-11-05T08:45:00.400Z,78.12
2022-11-05T08:46:00.429Z,76.93
2022-11-05T08:47:00.390Z,78.57
2022-11-05T08:47:59.678Z,78.02
2022-11-05T08:49:00.398Z,75.98
2022-11-05T08:50:00.409Z,77.11
2022-11-05T08:51:00.409Z,76.59
2022-11-05T08:52:00.399Z,76.39
2022-11-05T08:53:00.441Z,77.21
2022-11-05T08:54:00.508Z,77.21
2022-11-05T08:55:01.410Z,76.70
2022-11-05T08:56:00.269Z,75.98
2022-11-05T08:57:01.349Z,76.90
2022-11-05T08:58:01.299Z,76.29
2022-11-05T08:59:01.349Z,76.59
2022-11-05T09:00:00.300Z,76.59
2022-11-05T09:01:05.009Z,75.88
2022-11-05T09:02:00.403Z,75.88
2022-11-05T09:03:00.102Z,76.80
2022-11-05T09:04:01.340Z,76.25
2022-11-05T09:05:00.093Z,76.22
2022-11-05T09:06:00.358Z,76.05
2022-11-05T09:07:01.072Z,76.56
2022-11-05T09:08:01.611Z,76.66
2022-11-05T09:09:01.208Z,76.12
2022-11-05T09:10:00.264Z,76.22
2022-11-05T09:11:00.130Z,75.40
2022-11-05T09:12:16.387Z,74.58
2022-11-05T09:13:00.369Z,74.86
2022-11-05T09:13:59.450Z,74.49
2022-11-05T09:15:00.939Z,74.38
2022-11-05T09:16:00.729Z,74.11
2022-11-05T09:17:00.131Z,73.71
2022-11-05T09:17:59.950Z,74.41
2022-11-05T09:19:01.187Z,72.25
2022-11-05T09:20:01.019Z,73.57
2022-11-05T09:21:00.131Z,73.57
2022-11-05T09:21:59.980Z,72.01
2022-11-05T09:23:00.128Z,72.21
2022-11-05T09:24:00.091Z,71.91
2022-11-05T09:25:00.099Z,71.03
2022-11-05T09:25:59.948Z,70.99
2022-11-05T09:26:59.227Z,69.40
2022-11-05T09:28:01.310Z,68.02
2022-11-05T09:29:00.009Z,65.25
2022-11-05T09:30:00.678Z,63.64
2022-11-05T09:31:00.088Z,60.42
2022-11-05T09:32:00.037Z,60.35
2022-11-05T09:32:59.787Z,56.13
2022-11-05T09:33:59.170Z,52.62
2022-11-05T09:34:59.821Z,51.86
2022-11-05T09:35:59.157Z,53.30
2022-11-05T09:36:59.918Z,56.95
2022-11-05T09:38:01.259Z,57.17
2022-11-05T09:38:59.808Z,53.92
2022-11-05T09:39:59.752Z,50.86
2022-11-05T09:40:59.772Z,50.86
2022-11-05T09:42:00.068Z,53.57
2022-11-05T09:42:59.787Z,54.55
2022-11-05T09:43:59.868Z,53.37
2022-11-05T09:44:59.768Z,48.60
2022-11-05T09:46:00.980Z,45.93
2022-11-05T09:46:59.977Z,43.99
2022-11-05T09:47:59.807Z,45.18
2022-11-05T09:48:59.728Z,44.74
2022-11-05T09:49:59.568Z,43.91
2022-11-05T09:50:59.778Z,47.07
2022-11-05T09:51:59.628Z,46.95
2022-11-05T09:53:00.008Z,43.63
2022-11-05T09:53:58.950Z,43.75
2022-11-05T09:54:59.797Z,45.79
2022-11-05T09:55:59.610Z,45.94
2022-11-05T09:56:59.857Z,47.61
2022-11-05T09:57:59.640Z,49.71
2022-11-05T09:58:59.760Z,53.77
2022-11-05T09:59:59.642Z,53.09
2022-11-05T10:00:59.776Z,53.80
2022-11-05T10:01:59.730Z,56.20
2022-11-05T10:02:59.719Z,57.26
2022-11-05T10:04:00.008Z,57.21
2022-11-05T10:05:03.548Z,57.68
2022-11-05T10:05:59.808Z,56.68
2022-11-05T10:06:58.838Z,56.04
2022-11-05T10:07:59.767Z,56.65
2022-11-05T10:08:59.601Z,55.46
2022-11-05T10:09:59.738Z,57.39
2022-11-05T10:10:58.838Z,58.96
2022-11-05T10:11:59.570Z,60.42
2022-11-05T10:12:59.418Z,58.52
2022-11-05T10:13:59.597Z,56.07
2022-11-05T10:14:59.447Z,56.09
2022-11-05T10:15:59.719Z,55.14
2022-11-05T10:16:59.470Z,57.36
2022-11-05T10:17:59.837Z,58.34
2022-11-05T10:18:59.547Z,54.28
2022-11-05T10:19:59.487Z,51.72
2022-11-05T10:20:58.677Z,50.93
2022-11-05T10:22:06.557Z,53.92
2022-11-05T10:22:59.542Z,53.60
2022-11-05T10:23:59.291Z,51.54
2022-11-05T10:24:59.470Z,49.51
2022-11-05T10:25:59.278Z,50.59
2022-11-05T10:26:59.387Z,51.72
2022-11-05T10:27:59.360Z,52.04
2022-11-05T10:28:59.608Z,52.82
2022-11-05T10:29:59.539Z,52.77
2022-11-05T10:30:59.421Z,55.63
2022-11-05T10:31:58.559Z,55.49
2022-11-05T10:32:59.459Z,55.91
2022-11-05T10:33:58.538Z,55.41
2022-11-05T10:34:59.228Z,54.61
2022-11-05T10:35:59.368Z,54.48
2022-11-05T10:36:59.317Z,54.38
2022-11-05T10:37:59.297Z,53.88
2022-11-05T10:38:59.098Z,54.63
2022-11-05T10:39:58.509Z,55.74
2022-11-05T10:40:59.347Z,57.28
2022-11-05T10:41:59.459Z,55.91
2022-11-05T10:42:59.288Z,55.57
2022-11-05T10:43:58.438Z,57.25
2022-11-05T10:44:59.198Z,54.94
2022-11-05T10:45:58.429Z,56.40
2022-11-05T10:46:59.769Z,57.74
2022-11-05T10:47:59.197Z,58.75
2022-11-05T10:48:59.179Z,57.87
2022-11-05T10:49:59.180Z,59.61
2022-11-05T10:50:59.189Z,60.62
2022-11-05T10:51:58.977Z,59.21
2022-11-05T10:52:59.262Z,59.84
2022-11-05T10:54:02.140Z,58.33
2022-11-05T10:54:59.319Z,59.54
2022-11-05T10:55:58.939Z,60.27
2022-11-05T10:56:59.148Z,60.94
2022-11-05T10:57:58.924Z,61.58
2022-11-05T10:58:59.309Z,61.71
2022-11-05T10:59:58.969Z,62.11
2022-11-05T11:00:59.149Z,62.95
2022-11-05T11:01:59.274Z,63.56
2022-11-05T11:02:59.159Z,63.93
2022-11-05T11:03:59.090Z,63.32
2022-11-05T11:04:59.050Z,64.95
2022-11-05T11:05:59.051Z,63.32
2022-11-05T11:06:58.759Z,63.73
2022-11-05T11:07:58.962Z,64.00
2022-11-05T11:08:58.830Z,65.01
2022-11-05T11:09:59.059Z,65.04
2022-11-05T11:10:58.823Z,65.75
2022-11-05T11:11:59.932Z,65.17
2022-11-05T11:12:58.849Z,66.08
2022-11-05T11:13:58.958Z,65.37
2022-11-05T11:14:58.799Z,65.58
2022-11-05T11:15:59.980Z,66.08
2022-11-05T11:16:58.939Z,65.10
2022-11-05T11:17:58.989Z,65.10
2022-11-05T11:18:59.790Z,66.22
2022-11-05T11:19:59.899Z,67.24
2022-11-05T11:20:59.971Z,67.00
2022-11-05T11:21:59.740Z,67.81
2022-11-05T11:22:59.268Z,67.81
2022-11-05T11:23:58.718Z,65.88
2022-11-05T11:24:59.948Z,66.60
2022-11-05T11:25:59.978Z,66.86
2022-11-05T11:26:59.080Z,65.95
2022-11-05T11:27:58.673Z,65.75
2022-11-05T11:28:59.840Z,65.45
2022-11-05T11:29:58.689Z,65.17
2022-11-05T11:30:58.903Z,66.19
2022-11-05T11:31:58.973Z,66.60
2022-11-05T11:32:58.965Z,67.00
2022-11-05T11:33:58.729Z,65.58
2022-11-05T11:34:58.903Z,66.32
2022-11-05T11:35:58.824Z,67.27
2022-11-05T11:36:58.499Z,67.88
2022-11-05T11:37:58.789Z,68.49
2022-11-05T11:38:58.489Z,67.88
2022-11-05T11:39:59.759Z,67.50
2022-11-05T11:40:58.528Z,67.71
2022-11-05T11:41:58.810Z,67.71
2022-11-05T11:42:58.524Z,68.32
2022-11-05T11:43:59.760Z,68.21
2022-11-05T11:44:59.509Z,67.50
2022-11-05T11:46:04.880Z,67.50
2022-11-05T11:46:58.550Z,68.41
2022-11-05T11:47:58.659Z,68.52
2022-11-05T11:48:58.459Z,67.40
2022-11-05T11:49:58.798Z,67.71
2022-11-05T11:50:58.539Z,68.01
2022-11-05T11:51:58.321Z,67.19
2022-11-05T11:52:58.458Z,68.21
2022-11-05T11:53:58.341Z,68.59
2022-11-05T11:54:58.559Z,67.77
2022-11-05T11:55:58.329Z,66.96
2022-11-05T11:56:58.448Z,67.27
2022-11-05T11:57:58.290Z,67.47
2022-11-05T11:58:58.909Z,67.97
2022-11-05T12:00:08.902Z,67.19
2022-11-05T12:00:58.542Z,68.11
2022-11-05T12:01:58.570Z,67.91
2022-11-05T12:03:01.942Z,67.91
2022-11-05T12:03:58.319Z,69.13
2022-11-05T12:04:58.530Z,68.32
2022-11-05T12:05:59.469Z,69.02
2022-11-05T12:06:59.419Z,68.62
2022-11-05T12:07:59.298Z,68.52
2022-11-05T12:09:05.143Z,68.72
2022-11-05T12:09:58.470Z,67.80
2022-11-05T12:10:58.170Z,67.83
2022-11-05T12:11:59.379Z,69.16
2022-11-05T12:12:58.851Z,67.94
2022-11-05T12:13:58.399Z,68.96
2022-11-05T12:14:59.299Z,69.77
2022-11-05T12:15:58.320Z,70.68
2022-11-05T12:16:58.280Z,69.87
2022-11-05T12:17:58.351Z,69.77
2022-11-05T12:18:58.389Z,68.04
2022-11-05T12:19:58.343Z,69.16
2022-11-05T12:20:59.179Z,69.87
2022-11-05T12:21:59.243Z,68.35
2022-11-05T12:22:59.559Z,69.74
2022-11-05T12:23:59.039Z,69.53
2022-11-05T12:24:59.783Z,69.53
2022-11-05T12:25:58.428Z,68.01
2022-11-05T12:26:59.780Z,69.64
2022-11-05T12:27:59.268Z,67.80
2022-11-05T12:29:17.918Z,67.71
2022-11-05T12:29:58.280Z,69.23
2022-11-05T12:30:58.160Z,68.62
2022-11-05T12:31:58.029Z,68.11
2022-11-05T12:32:58.369Z,69.13
2022-11-05T12:33:57.970Z,66.96
2022-11-05T12:34:58.138Z,66.76
2022-11-05T12:35:58.283Z,67.67
2022-11-05T12:36:58.291Z,66.86
2022-11-05T12:37:59.010Z,66.05
2022-11-05T12:38:57.968Z,67.16
2022-11-05T12:39:59.210Z,67.06
2022-11-05T12:40:58.869Z,67.97
2022-11-05T12:41:58.041Z,68.08
2022-11-05T12:42:58.898Z,68.01
2022-11-05T12:43:59.041Z,69.64
2022-11-05T12:44:58.839Z,70.55
2022-11-05T12:45:58.018Z,68.72
2022-11-05T12:46:58.909Z,69.02
2022-11-05T12:47:59.036Z,70.07
2022-11-05T12:48:58.120Z,69.06
2022-11-05T12:49:58.970Z,70.10
2022-11-05T12:50:57.838Z,71.12
2022-11-05T12:51:58.980Z,70.51